Time;durP1;ratioP1;P1;durP2;ratioP2;P2;SDS_P1;SDS_P2;PMS_P1;PMS_P2;Temp;Humidity;BMP_temperature;BMP_pressure;BME280_temperature;BME280_humidity;BME280_pressure;Samples;Min_cycle;Max_cycle;Signal;HPM_P1;HPM_P2
2021/10/19 00:02:16;;;;;;;20.35;12.63;;;;;;;14.42;95.61;101891.16;5014804;28;20523;-72
2021/10/19 00:04:41;;;;;;;18.30;12.63;;;;;;;14.41;95.85;101890.25;5014992;28;20374;-71
2021/10/19 00:07:07;;;;;;;16.17;11.88;;;;;;;14.42;95.93;101881.47;5014799;28;20486;-72
2021/10/19 00:09:32;;;;;;;15.80;12.10;;;;;;;14.43;95.98;101893.84;5014932;28;20032;-73
2021/10/19 00:11:57;;;;;;;19.85;12.50;;;;;;;14.42;96.28;101885.84;5014812;28;20029;-71
2021/10/19 00:14:23;;;;;;;15.65;11.40;;;;;;;14.43;96.25;101877.97;5014454;28;20113;-72
2021/10/19 00:16:48;;;;;;;15.70;11.77;;;;;;;14.44;96.35;101885.00;5014601;28;20033;-72
2021/10/19 00:19:14;;;;;;;17.50;11.23;;;;;;;14.46;96.46;101892.97;5014508;28;20393;-73
2021/10/19 00:21:39;;;;;;;16.00;11.40;;;;;;;14.47;96.29;101889.47;5013156;28;20042;-72
2021/10/19 00:24:05;;;;;;;16.17;11.63;;;;;;;14.48;96.59;101886.84;5012948;28;20465;-72
2021/10/19 00:26:30;;;;;;;17.35;13.07;;;;;;;14.44;96.85;101877.06;5013666;28;20378;-72
2021/10/19 00:28:55;;;;;;;21.80;12.52;;;;;;;14.45;97.17;101872.69;5018956;28;20030;-73
2021/10/19 00:31:21;;;;;;;16.35;11.48;;;;;;;14.42;97.36;101868.22;5012969;28;20072;-73
2021/10/19 00:33:47;;;;;;;15.75;11.23;;;;;;;14.43;97.38;101867.38;5014282;28;20114;-73
2021/10/19 00:36:12;;;;;;;16.17;11.20;;;;;;;14.45;97.75;101873.56;5014133;28;20030;-73
2021/10/19 00:38:37;;;;;;;19.50;12.50;;;;;;;14.44;98.32;101879.72;5014323;28;20034;-72
2021/10/19 00:41:03;;;;;;;16.10;12.32;;;;;;;14.41;99.36;101874.38;5012914;28;20042;-72
2021/10/19 00:43:28;;;;;;;17.13;13.40;;;;;;;14.38;99.91;101868.13;5012833;28;20061;-73
2021/10/19 00:45:57;;;;;;;18.98;12.43;;;;;;;14.35;100.00;101871.59;5012824;28;20433;-72
2021/10/19 00:48:26;;;;;;;20.20;14.93;;;;;;;14.27;100.00;101860.91;5014036;28;20022;-73
2021/10/19 00:50:51;;;;;;;21.45;15.38;;;;;;;14.24;100.00;101862.59;5012639;28;20037;-72
2021/10/19 00:53:17;;;;;;;25.15;16.13;;;;;;;14.19;100.00;101856.31;5022313;28;20036;-73
2021/10/19 00:55:43;;;;;;;27.75;17.42;;;;;;;14.16;100.00;101858.06;5033672;28;20025;-72
2021/10/19 00:58:09;;;;;;;27.10;17.10;;;;;;;14.11;100.00;101857.09;5033499;28;20083;-73
2021/10/19 01:00:36;;;;;;;28.08;16.63;;;;;;;14.10;100.00;101852.66;5033474;28;20017;-72
2021/10/19 01:03:01;;;;;;;23.33;17.02;;;;;;;14.10;100.00;101847.34;5033478;28;20444;-72
2021/10/19 01:05:27;;;;;;;25.75;17.20;;;;;;;14.10;100.00;101841.19;5032161;28;20034;-72
2021/10/19 01:07:52;;;;;;;27.90;19.15;;;;;;;14.05;100.00;101835.78;5033604;28;20354;-72
2021/10/19 01:10:18;;;;;;;29.27;19.45;;;;;;;14.01;100.00;101841.88;5033295;28;20026;-73
2021/10/19 01:12:43;;;;;;;28.45;19.10;;;;;;;14.02;100.00;101830.44;5033301;28;20079;-73
2021/10/19 01:15:11;;;;;;;30.30;20.38;;;;;;;13.99;100.00;101823.34;5033482;28;20037;-72
2021/10/19 01:17:44;;;;;;;31.42;20.23;;;;;;;13.98;100.00;101820.66;5033463;28;20527;-72
2021/10/19 01:20:22;;;;;;;32.13;21.53;;;;;;;13.99;100.00;101822.47;5033287;28;20077;-72
2021/10/19 01:22:47;;;;;;;31.95;20.42;;;;;;;13.99;100.00;101820.69;5033578;28;20493;-73
2021/10/19 01:25:18;;;;;;;34.65;21.10;;;;;;;13.98;100.00;101811.00;5031666;28;20044;-72
2021/10/19 01:27:58;;;;;;;33.42;20.80;;;;;;;14.00;100.00;101809.25;5033403;28;20393;-72
2021/10/19 01:30:24;;;;;;;32.15;20.83;;;;;;;14.01;100.00;101804.84;5033085;28;20021;-72
2021/10/19 01:32:50;;;;;;;31.30;20.70;;;;;;;14.04;100.00;101798.72;5031912;28;20120;-72
2021/10/19 01:35:16;;;;;;;39.88;22.25;;;;;;;14.01;100.00;101788.97;5033004;28;20108;-72
2021/10/19 01:37:42;;;;;;;36.33;23.00;;;;;;;13.99;100.00;101790.72;5034432;28;20033;-72
2021/10/19 01:40:13;;;;;;;36.10;23.00;;;;;;;14.00;100.00;101792.50;5039592;28;20381;-72
2021/10/19 01:42:38;;;;;;;40.72;23.23;;;;;;;14.00;100.00;101792.50;5039510;28;20540;-72
2021/10/19 01:45:12;;;;;;;41.10;23.25;;;;;;;14.02;100.00;101785.47;5039651;28;20067;-72
2021/10/19 01:47:37;;;;;;;38.15;23.00;;;;;;;14.02;100.00;101782.81;5039642;28;20038;-72
2021/10/19 01:50:03;;;;;;;34.63;21.65;;;;;;;14.04;100.00;101788.13;5039619;28;20025;-72
2021/10/19 01:52:28;;;;;;;32.78;21.55;;;;;;;14.03;100.00;101783.72;5036105;28;20459;-72
2021/10/19 01:54:54;;;;;;;37.90;21.60;;;;;;;14.07;100.00;101788.19;5019698;28;20041;-72
2021/10/19 01:57:19;;;;;;;33.70;22.00;;;;;;;14.09;100.00;101784.69;5019583;28;20030;-71
2021/10/19 01:59:44;;;;;;;35.95;22.40;;;;;;;14.09;100.00;101776.75;5020027;28;20045;-71
2021/10/19 02:02:10;;;;;;;35.70;22.27;;;;;;;14.11;100.00;101769.75;5019759;28;20026;-72
2021/10/19 02:04:35;;;;;;;30.70;20.52;;;;;;;14.13;100.00;101752.16;5019531;28;20037;-72
2021/10/19 02:07:00;;;;;;;38.70;23.17;;;;;;;14.18;100.00;101757.50;5018294;28;20039;-73
2021/10/19 02:09:26;;;;;;;31.08;21.75;;;;;;;14.23;100.00;101750.53;5019548;28;20038;-72
2021/10/19 02:11:53;;;;;;;31.20;21.77;;;;;;;14.21;100.00;101760.19;5019890;28;20331;-72
2021/10/19 02:14:19;;;;;;;33.67;21.05;;;;;;;14.23;100.00;101758.47;5019285;28;20068;-73
2021/10/19 02:16:44;;;;;;;38.78;24.10;;;;;;;14.28;100.00;101758.53;5019585;28;20026;-72
2021/10/19 02:19:09;;;;;;;34.03;21.23;;;;;;;14.29;100.00;101757.69;5019538;28;20053;-72
2021/10/19 02:21:34;;;;;;;33.75;23.63;;;;;;;14.31;100.00;101766.50;5018128;28;20390;-73
2021/10/19 02:24:00;;;;;;;31.83;22.90;;;;;;;14.31;100.00;101761.22;5019278;28;20021;-72
2021/10/19 02:26:25;;;;;;;36.95;23.35;;;;;;;14.33;100.00;101754.22;5019547;28;20422;-72
2021/10/19 02:28:50;;;;;;;34.83;23.70;;;;;;;14.34;100.00;101750.69;5019300;28;20021;-72
2021/10/19 02:31:16;;;;;;;35.42;22.50;;;;;;;14.35;100.00;101749.81;5019391;28;20032;-73
2021/10/19 02:33:41;;;;;;;34.55;23.92;;;;;;;14.33;100.00;101744.50;5019292;28;20061;-73
2021/10/19 02:36:06;;;;;;;37.85;25.20;;;;;;;14.37;100.00;101753.38;5019312;28;20029;-73
2021/10/19 02:38:32;;;;;;;35.42;25.13;;;;;;;14.38;100.00;101755.19;5019517;28;20026;-72
2021/10/19 02:40:57;;;;;;;40.08;26.98;;;;;;;14.39;100.00;101759.63;5019487;28;20030;-72
2021/10/19 02:43:22;;;;;;;37.75;26.52;;;;;;;14.39;100.00;101743.72;5019565;28;20022;-73
2021/10/19 02:45:48;;;;;;;38.60;26.08;;;;;;;14.39;100.00;101751.66;5018409;28;20528;-73
2021/10/19 02:48:14;;;;;;;42.22;27.92;;;;;;;14.39;100.00;101740.16;5018136;28;20087;-72
2021/10/19 02:50:39;;;;;;;39.63;28.17;;;;;;;14.38;100.00;101734.00;5014210;28;20124;-72
2021/10/19 02:53:05;;;;;;;41.90;27.15;;;;;;;14.39;100.00;101727.84;5023086;28;20052;-71
2021/10/19 02:55:30;;;;;;;40.95;28.38;;;;;;;14.40;100.00;101721.66;5036094;28;20488;-71
2021/10/19 02:57:55;;;;;;;38.67;26.95;;;;;;;14.39;100.00;101711.94;5035838;28;20107;-71
2021/10/19 03:00:21;;;;;;;40.88;26.02;;;;;;;14.37;100.00;101702.19;5035943;28;20057;-72
2021/10/19 03:02:46;;;;;;;37.50;26.33;;;;;;;14.37;100.00;101697.78;5034460;28;20033;-72
2021/10/19 03:05:12;;;;;;;40.95;27.63;;;;;;;14.40;100.00;101697.81;5035736;28;20013;-72
2021/10/19 03:07:37;;;;;;;41.40;27.85;;;;;;;14.38;100.00;101699.56;5035637;28;20033;-72
2021/10/19 03:10:03;;;;;;;44.15;28.17;;;;;;;14.39;100.00;101692.50;5034382;28;20072;-72
2021/10/19 03:12:29;;;;;;;43.22;26.55;;;;;;;14.39;100.00;101696.06;5035545;28;20041;-73
2021/10/19 03:14:54;;;;;;;44.60;27.92;;;;;;;14.38;100.00;101688.97;5035240;28;20466;-73
2021/10/19 03:17:20;;;;;;;46.15;27.50;;;;;;;14.38;100.00;101691.63;5035593;28;20024;-72
2021/10/19 03:19:45;;;;;;;41.33;27.75;;;;;;;14.39;100.00;101690.78;5034185;28;20051;-72
2021/10/19 03:22:10;;;;;;;45.03;28.27;;;;;;;14.39;100.00;101688.13;5035319;28;20069;-71
2021/10/19 03:24:36;;;;;;;41.58;26.23;;;;;;;14.37;100.00;101681.91;5035048;28;20041;-72
2021/10/19 03:27:01;;;;;;;44.70;27.27;;;;;;;14.37;100.00;101687.19;5033859;28;20478;-73
2021/10/19 03:29:27;;;;;;;43.15;27.17;;;;;;;14.39;100.00;101693.41;5033885;28;20432;-73
2021/10/19 03:31:52;;;;;;;45.22;26.52;;;;;;;14.41;100.00;101694.31;5035141;28;20021;-73
2021/10/19 03:34:18;;;;;;;36.65;24.15;;;;;;;14.44;100.00;101697.00;5034932;28;20022;-72
2021/10/19 03:36:43;;;;;;;38.08;25.38;;;;;;;14.44;100.00;101698.75;5035259;28;20042;-73
2021/10/19 03:39:09;;;;;;;38.63;26.08;;;;;;;14.43;100.00;101697.88;5035123;28;20043;-73
2021/10/19 03:41:34;;;;;;;39.05;26.38;;;;;;;14.43;100.00;101695.25;5035000;28;20045;-73
2021/10/19 03:43:59;;;;;;;38.90;25.58;;;;;;;14.44;100.00;101702.28;5033720;28;20052;-72
2021/10/19 03:46:25;;;;;;;39.85;25.77;;;;;;;14.44;100.00;101706.72;5034917;28;20462;-73
2021/10/19 03:48:50;;;;;;;42.08;27.75;;;;;;;14.41;100.00;101704.91;5034888;28;20022;-72
2021/10/19 03:51:15;;;;;;;44.15;27.90;;;;;;;14.42;100.00;101705.78;5034678;28;20108;-71
2021/10/19 03:53:41;;;;;;;45.35;26.80;;;;;;;14.44;100.00;101714.66;5022646;28;20058;-72
2021/10/19 03:56:06;;;;;;;38.67;26.52;;;;;;;14.46;100.00;101712.91;5014776;28;20038;-72
2021/10/19 03:58:32;;;;;;;39.85;26.15;;;;;;;14.43;100.00;101710.22;5014823;28;20037;-72
2021/10/19 04:00:57;;;;;;;44.72;26.85;;;;;;;14.43;100.00;101703.19;5014840;28;20096;-72
2021/10/19 04:03:22;;;;;;;40.78;24.25;;;;;;;14.43;100.00;101702.28;5014879;28;20022;-72
2021/10/19 04:05:51;;;;;;;40.42;26.45;;;;;;;14.40;100.00;101703.13;5014712;28;20064;-72
2021/10/19 04:08:17;;;;;;;43.15;25.38;;;;;;;14.40;100.00;101708.41;5014651;28;20037;-73
2021/10/19 04:10:42;;;;;;;44.08;25.65;;;;;;;14.41;100.00;101709.31;5014612;28;20025;-73
2021/10/19 04:13:07;;;;;;;43.60;26.20;;;;;;;14.40;100.00;101708.41;5014498;28;20037;-73
2021/10/19 04:15:33;;;;;;;40.95;24.17;;;;;;;14.41;100.00;101707.56;5013367;28;20022;-72
2021/10/19 04:17:58;;;;;;;43.97;25.95;;;;;;;14.41;100.00;101704.91;5014585;28;20025;-72
2021/10/19 04:20:23;;;;;;;41.30;26.48;;;;;;;14.40;100.00;101702.25;5014454;28;20041;-72
2021/10/19 04:22:49;;;;;;;45.03;24.15;;;;;;;14.39;100.00;101703.09;5014561;28;20064;-73
2021/10/19 04:25:14;;;;;;;34.40;21.80;;;;;;;14.42;100.00;101701.41;5014545;28;20489;-72
2021/10/19 04:27:39;;;;;;;40.88;23.90;;;;;;;14.41;100.00;101709.31;5014726;28;20119;-72
2021/10/19 04:30:05;;;;;;;42.05;23.77;;;;;;;14.41;100.00;101710.19;5014625;28;20052;-73
2021/10/19 04:32:31;;;;;;;38.47;23.80;;;;;;;14.44;100.00;101715.53;5013386;28;20474;-73
2021/10/19 04:34:56;;;;;;;39.70;23.25;;;;;;;14.47;100.00;101712.94;5014527;28;20044;-72
2021/10/19 04:37:21;;;;;;;35.33;22.17;;;;;;;14.46;100.00;101705.88;5014413;28;20029;-72
2021/10/19 04:39:47;;;;;;;36.45;22.83;;;;;;;14.48;100.00;101696.16;5014192;28;20025;-73
2021/10/19 04:42:12;;;;;;;36.45;21.63;;;;;;;14.48;100.00;101698.81;5014237;28;20022;-72
2021/10/19 04:44:38;;;;;;;39.03;21.42;;;;;;;14.50;100.00;101693.53;5014376;28;20034;-73
2021/10/19 04:47:03;;;;;;;38.45;23.30;;;;;;;14.53;100.00;101692.69;5014346;28;20272;-72
2021/10/19 04:49:29;;;;;;;34.53;21.15;;;;;;;14.49;100.00;101687.38;5012945;28;20121;-72
2021/10/19 04:51:55;;;;;;;34.38;20.88;;;;;;;14.50;100.00;101688.25;5012896;28;20061;-73
2021/10/19 04:54:20;;;;;;;38.47;23.60;;;;;;;14.48;100.00;101679.41;5031031;28;20080;-73
2021/10/19 04:56:45;;;;;;;40.55;23.30;;;;;;;14.49;100.00;101679.41;5033467;28;20074;-73
2021/10/19 04:59:11;;;;;;;37.40;22.15;;;;;;;14.53;100.00;101683.00;5032197;28;20503;-72
2021/10/19 05:01:36;;;;;;;40.35;22.38;;;;;;;14.53;100.00;101674.16;5032270;28;20028;-72
2021/10/19 05:04:01;;;;;;;38.22;22.65;;;;;;;14.57;100.00;101670.69;5033414;28;20021;-72
2021/10/19 05:06:27;;;;;;;35.33;20.38;;;;;;;14.57;100.00;101673.31;5033409;28;20041;-72
2021/10/19 05:08:52;;;;;;;46.28;26.15;;;;;;;14.55;100.00;101668.00;5033432;28;20029;-72
2021/10/19 05:11:17;;;;;;;44.88;24.95;;;;;;;14.59;100.00;101669.81;5031881;28;20363;-72
2021/10/19 05:13:43;;;;;;;51.30;27.02;;;;;;;14.59;100.00;101661.88;5031321;28;20481;-72
2021/10/19 05:16:08;;;;;;;47.40;26.17;;;;;;;14.58;100.00;101664.53;5033142;28;20465;-72
2021/10/19 05:18:33;;;;;;;52.03;27.73;;;;;;;14.58;100.00;101673.38;5033157;28;20446;-72
2021/10/19 05:20:59;;;;;;;56.72;27.73;;;;;;;14.60;100.00;101668.97;5033485;28;20037;-72
2021/10/19 05:23:24;;;;;;;65.75;30.30;;;;;;;14.61;100.00;101662.81;5033219;28;20029;-72
2021/10/19 05:25:50;;;;;;;63.25;29.95;;;;;;;14.62;100.00;101658.38;5031895;28;20045;-72
2021/10/19 05:28:15;;;;;;;58.15;29.75;;;;;;;14.63;100.00;101657.56;5033113;28;20021;-72
2021/10/19 05:30:41;;;;;;;54.17;30.45;;;;;;;14.67;100.00;101652.31;5033387;28;20033;-74
2021/10/19 05:33:07;;;;;;;57.00;30.98;;;;;;;14.66;100.00;101657.59;5033127;28;20018;-73
2021/10/19 05:35:33;;;;;;;64.60;32.15;;;;;;;14.67;100.00;101654.09;5032893;28;20025;-72
2021/10/19 05:37:59;;;;;;;68.60;34.17;;;;;;;14.68;100.00;101661.16;5031735;28;20040;-72
2021/10/19 05:40:25;;;;;;;62.38;31.95;;;;;;;14.71;100.00;101663.84;5032645;28;20028;-72
2021/10/19 05:42:51;;;;;;;66.85;33.63;;;;;;;14.70;100.00;101669.13;5032658;28;20474;-71
2021/10/19 05:45:17;;;;;;;60.72;32.28;;;;;;;14.73;100.00;101667.41;5032588;28;20030;-73
2021/10/19 05:47:43;;;;;;;64.60;33.22;;;;;;;14.71;100.00;101671.78;5032734;28;20018;-73
2021/10/19 05:50:09;;;;;;;66.75;34.42;;;;;;;14.70;100.00;101667.34;5032890;28;20083;-74
2021/10/19 05:52:35;;;;;;;57.03;31.98;;;;;;;14.75;100.00;101668.31;5029904;28;20022;-73
2021/10/19 05:55:00;;;;;;;65.40;35.08;;;;;;;14.77;100.00;101663.94;5011660;28;20523;-73
2021/10/19 05:57:26;;;;;;;68.32;34.63;;;;;;;14.78;100.00;101664.81;5012975;28;20354;-73
2021/10/19 05:59:51;;;;;;;65.95;34.45;;;;;;;14.80;100.00;101658.66;5011734;28;20123;-73
2021/10/19 06:02:16;;;;;;;78.20;37.05;;;;;;;14.80;100.00;101660.44;5012040;28;20109;-73
2021/10/19 06:04:42;;;;;;;69.03;35.15;;;;;;;14.81;100.00;101655.16;5013235;28;20025;-73
2021/10/19 06:07:07;;;;;;;69.35;34.97;;;;;;;14.82;100.00;101640.13;5013352;28;20041;-73
2021/10/19 06:09:32;;;;;;;68.47;33.80;;;;;;;14.84;100.00;101647.22;5011978;28;20525;-73
2021/10/19 06:11:58;;;;;;;64.22;33.30;;;;;;;14.89;100.00;101643.75;5012036;28;20462;-72
2021/10/19 06:14:24;;;;;;;66.45;34.90;;;;;;;14.87;100.00;101646.38;5012994;28;20113;-73
2021/10/19 06:16:50;;;;;;;70.47;35.08;;;;;;;14.89;100.00;101649.03;5013239;28;20114;-74
2021/10/19 06:19:16;;;;;;;69.55;34.65;;;;;;;14.90;100.00;101661.44;5013117;28;20026;-73
2021/10/19 06:21:42;;;;;;;76.88;37.80;;;;;;;14.91;100.00;101663.22;5013052;28;20040;-73
2021/10/19 06:24:08;;;;;;;73.20;36.28;;;;;;;14.92;100.00;101665.88;5011988;28;20026;-74
2021/10/19 06:26:36;;;;;;;80.85;38.70;;;;;;;14.96;100.00;101666.78;5016716;28;20101;-73
2021/10/19 06:29:05;;;;;;;77.60;36.50;;;;;;;14.96;100.00;101666.78;5016391;28;20478;-74
2021/10/19 06:31:30;;;;;;;74.32;37.38;;;;;;;15.00;100.00;101663.28;5015190;28;20394;-74
2021/10/19 06:33:55;;;;;;;78.65;38.38;;;;;;;14.99;100.00;101662.41;5016502;28;20033;-73
2021/10/19 06:36:21;;;;;;;75.90;37.85;;;;;;;15.03;100.00;101651.84;5016411;28;20030;-74
2021/10/19 06:38:46;;;;;;;76.20;36.75;;;;;;;15.04;100.00;101649.19;5016189;28;20038;-73
2021/10/19 06:41:11;;;;;;;71.35;36.10;;;;;;;15.04;100.00;101654.50;5016314;28;20032;-73
2021/10/19 06:43:37;;;;;;;78.78;37.72;;;;;;;15.02;100.00;101645.66;5016326;28;20022;-73
2021/10/19 06:46:04;;;;;;;85.90;38.10;;;;;;;15.01;100.00;101655.34;5014987;28;20069;-73
2021/10/19 06:48:29;;;;;;;75.90;36.75;;;;;;;15.02;100.00;101656.25;5016001;28;20025;-71
2021/10/19 06:50:54;;;;;;;74.75;36.45;;;;;;;15.03;100.00;101666.00;5016516;28;20049;-75
2021/10/19 06:53:20;;;;;;;70.80;34.33;;;;;;;15.03;100.00;101673.97;5025370;28;20028;-75
2021/10/19 06:55:45;;;;;;;62.58;32.35;;;;;;;15.08;100.00;101671.34;5035373;28;20033;-76
2021/10/19 06:58:11;;;;;;;68.70;35.53;;;;;;;15.10;100.00;101670.50;5036198;28;20029;-73
2021/10/19 07:00:36;;;;;;;62.22;33.00;;;;;;;15.13;100.00;101673.16;5035955;28;20044;-73
2021/10/19 07:03:02;;;;;;;58.97;31.70;;;;;;;15.15;100.00;101675.84;5035686;28;20158;-73
2021/10/19 07:05:27;;;;;;;65.60;32.28;;;;;;;15.15;100.00;101666.13;5035780;28;20033;-72
2021/10/19 07:07:53;;;;;;;63.90;33.22;;;;;;;15.16;100.00;101669.66;5035723;28;20029;-73
2021/10/19 07:10:20;;;;;;;65.93;32.85;;;;;;;15.17;100.00;101669.69;5035843;28;20048;-73
2021/10/19 07:12:45;;;;;;;66.43;34.72;;;;;;;15.17;100.00;101661.72;5035633;28;20110;-73
2021/10/19 07:15:11;;;;;;;58.92;30.27;;;;;;;15.19;100.00;101659.09;5035435;28;20060;-73
2021/10/19 07:17:38;;;;;;;55.60;32.67;;;;;;;15.24;100.00;101659.16;5035760;28;20523;-73
2021/10/19 07:20:07;;;;;;;63.85;32.88;;;;;;;15.24;100.00;101661.81;5035744;28;20409;-73
2021/10/19 07:22:32;;;;;;;61.28;31.48;;;;;;;15.30;100.00;101664.50;5035480;28;20114;-74
2021/10/19 07:24:59;;;;;;;56.55;30.38;;;;;;;15.32;100.00;101665.41;5035563;28;20072;-73
2021/10/19 07:27:25;;;;;;;59.42;29.80;;;;;;;15.30;100.00;101656.53;5035597;28;20136;-73
2021/10/19 07:29:51;;;;;;;54.40;28.02;;;;;;;15.32;100.00;101670.72;5035473;28;20069;-73
2021/10/19 07:32:16;;;;;;;60.45;30.05;;;;;;;15.31;100.00;101667.19;5035295;28;20103;-74
2021/10/19 07:34:42;;;;;;;55.53;28.92;;;;;;;15.34;100.00;101668.97;5035346;28;20030;-73
2021/10/19 07:37:07;;;;;;;52.10;28.35;;;;;;;15.37;100.00;101669.00;5033913;28;20021;-72
2021/10/19 07:39:32;;;;;;;53.78;27.33;;;;;;;15.36;100.00;101666.34;5035523;28;20389;-72
2021/10/19 07:41:58;;;;;;;52.83;29.00;;;;;;;15.39;100.00;101664.59;5035626;28;20087;-72
2021/10/19 07:44:23;;;;;;;50.40;27.00;;;;;;;15.42;100.00;101666.41;5035992;28;20021;-73
2021/10/19 07:46:52;;;;;;;54.05;27.98;;;;;;;15.46;100.00;101671.75;5035982;28;20517;-71
2021/10/19 07:49:18;;;;;;;48.95;27.38;;;;;;;15.46;100.00;101666.47;5035219;28;20022;-74
2021/10/19 07:51:44;;;;;;;56.55;27.70;;;;;;;15.49;100.00;101657.59;5035205;28;20489;-74
2021/10/19 07:54:09;;;;;;;51.03;27.60;;;;;;;15.49;100.00;101657.59;5019389;28;20022;-74
2021/10/19 07:56:35;;;;;;;51.78;27.20;;;;;;;15.49;100.00;101661.19;5015513;28;20164;-74
2021/10/19 07:59:05;;;;;;;42.42;24.50;;;;;;;15.50;100.00;101660.31;5015229;28;20141;-74
2021/10/19 08:01:30;;;;;;;47.53;25.77;;;;;;;15.53;100.00;101656.75;5015173;28;20029;-72
2021/10/19 08:03:55;;;;;;;49.05;25.15;;;;;;;15.54;100.00;101655.91;5015347;28;20462;-74
2021/10/19 08:06:21;;;;;;;43.78;24.85;;;;;;;15.54;100.00;101650.59;5015096;28;20037;-73
2021/10/19 08:08:46;;;;;;;46.40;23.50;;;;;;;15.59;100.00;101654.19;5013598;28;20026;-74
2021/10/19 08:11:11;;;;;;;40.60;23.73;;;;;;;15.59;100.00;101648.00;5015176;28;20037;-74
2021/10/19 08:13:37;;;;;;;42.88;24.27;;;;;;;15.61;100.00;101656.84;5014928;28;20046;-74
2021/10/19 08:16:03;;;;;;;45.50;24.98;;;;;;;15.62;100.00;101653.31;5015417;28;20025;-74
2021/10/19 08:18:28;;;;;;;38.03;22.63;;;;;;;15.64;100.00;101652.47;5014809;28;20100;-74
2021/10/19 08:20:54;;;;;;;40.53;23.10;;;;;;;15.72;100.00;101660.50;5014751;28;20433;-72
2021/10/19 08:23:20;;;;;;;43.17;26.10;;;;;;;15.71;100.00;101653.41;5013296;28;20038;-72
2021/10/19 08:25:46;;;;;;;44.20;25.08;;;;;;;15.71;100.00;101658.72;5014285;28;20401;-73
2021/10/19 08:28:18;;;;;;;47.00;26.60;;;;;;;15.76;100.00;101657.00;5014695;28;20026;-72
2021/10/19 08:30:44;;;;;;;47.47;27.27;;;;;;;15.80;100.00;101653.53;5014637;28;20470;-73
2021/10/19 08:33:09;;;;;;;45.58;26.67;;;;;;;15.81;100.00;101649.97;5014903;28;20152;-73
2021/10/19 08:35:34;;;;;;;48.67;28.15;;;;;;;15.84;100.00;101660.63;5012990;28;20481;-73
2021/10/19 08:38:01;;;;;;;62.97;31.77;;;;;;;15.85;100.00;101656.19;5014367;28;20092;-73
2021/10/19 08:40:26;;;;;;;58.58;30.67;;;;;;;15.88;100.00;101660.63;5014179;28;20037;-73
2021/10/19 08:42:52;;;;;;;62.15;32.17;;;;;;;15.87;100.00;101657.13;5014250;28;20033;-73
2021/10/19 08:45:18;;;;;;;62.92;32.13;;;;;;;15.89;100.00;101652.69;5014531;28;20390;-73
2021/10/19 08:47:46;;;;;;;67.78;32.95;;;;;;;15.95;100.00;101649.19;5012202;28;20022;-73
2021/10/19 08:50:14;;;;;;;66.93;33.17;;;;;;;15.96;100.00;101643.88;5014116;28;20104;-73
2021/10/19 08:52:39;;;;;;;59.70;32.72;;;;;;;15.98;100.00;101649.22;5017362;28;20033;-73
2021/10/19 08:55:06;;;;;;;63.78;31.70;;;;;;;16.01;100.00;101647.47;5034017;28;20501;-72
2021/10/19 08:57:32;;;;;;;56.03;30.90;;;;;;;16.05;100.00;101643.06;5032391;28;20033;-73
2021/10/19 08:59:58;;;;;;;55.97;30.58;;;;;;;16.04;100.00;101651.91;5033629;28;20025;-72
2021/10/19 09:02:44;;;;;;;58.72;31.15;;;;;;;16.04;100.00;101651.03;5031997;28;20515;-72
2021/10/19 09:05:15;;;;;;;52.92;30.90;;;;;;;16.08;100.00;101643.09;5032229;28;20033;-72
2021/10/19 09:07:55;;;;;;;54.88;32.58;;;;;;;16.09;100.00;101644.88;5032100;28;20057;-72
2021/10/19 09:10:20;;;;;;;52.88;32.50;;;;;;;16.11;100.00;101647.53;5033349;28;20493;-72
2021/10/19 09:12:59;;;;;;;59.08;33.25;;;;;;;16.13;100.00;101651.97;5033500;28;20098;-73
2021/10/19 09:15:30;;;;;;;52.85;32.10;;;;;;;16.15;100.00;101649.31;5033211;28;20036;-74
2021/10/19 09:18:03;;;;;;;61.78;32.50;;;;;;;16.19;100.00;101661.75;5033517;28;20029;-73
2021/10/19 09:20:30;;;;;;;66.95;35.03;;;;;;;16.18;100.00;101663.53;5031990;28;20029;-72
2021/10/19 09:23:01;;;;;;;52.42;31.77;;;;;;;16.23;100.00;101670.63;5033404;28;20436;-72
2021/10/19 09:26:01;;;;;;;65.47;33.95;;;;;;;16.22;100.00;101660.88;5033226;28;20045;-72
2021/10/19 09:28:38;;;;;;;57.05;32.38;;;;;;;16.28;100.00;101660.94;5032848;28;20033;-71
2021/10/19 09:31:05;;;;;;;53.80;31.10;;;;;;;16.29;100.00;101658.28;5032280;28;20385;-72
2021/10/19 09:33:30;;;;;;;64.32;33.88;;;;;;;16.31;100.00;101661.81;5033457;28;20072;-72
2021/10/19 09:35:59;;;;;;;60.78;32.83;;;;;;;16.34;100.00;101668.91;5033244;28;20115;-72
2021/10/19 09:38:25;;;;;;;54.30;30.02;;;;;;;16.38;100.00;101668.06;5033495;28;20247;-72
2021/10/19 09:40:56;;;;;;;57.13;29.48;;;;;;;16.38;100.00;101670.72;5033191;28;20029;-72
2021/10/19 09:43:24;;;;;;;52.65;29.63;;;;;;;16.40;100.00;101661.00;5033177;28;20025;-72
2021/10/19 09:45:52;;;;;;;51.70;27.80;;;;;;;16.46;100.00;101671.63;5031806;28;20041;-72
2021/10/19 09:48:22;;;;;;;45.33;27.05;;;;;;;16.45;100.00;101664.53;5033483;28;20473;-72
2021/10/19 09:50:49;;;;;;;45.38;26.38;;;;;;;16.47;100.00;101661.91;5032965;28;20033;-72
2021/10/19 09:53:17;;;;;;;43.25;25.45;;;;;;;16.53;100.00;101672.56;5023650;28;20565;-72
2021/10/19 09:55:44;;;;;;;46.03;26.45;;;;;;;16.52;100.00;101666.38;5013221;28;20121;-72
2021/10/19 09:58:09;;;;;;;48.30;25.08;;;;;;;16.58;100.00;101660.19;5013667;28;20061;-72
2021/10/19 10:00:37;;;;;;;43.30;24.23;;;;;;;16.66;100.00;101662.91;5017117;28;20058;-71
2021/10/19 10:03:03;;;;;;;40.63;22.65;;;;;;;16.67;100.00;101664.66;5017151;28;20018;-72
2021/10/19 10:05:33;;;;;;;36.38;21.75;;;;;;;16.71;100.00;101663.78;5017264;28;20088;-72
2021/10/19 10:08:00;;;;;;;37.97;21.00;;;;;;;16.74;100.00;101655.84;5015824;28;20389;-72
2021/10/19 10:10:26;;;;;;;36.15;20.77;;;;;;;16.77;100.00;101655.84;5016918;28;20445;-72
2021/10/19 10:13:04;;;;;;;34.55;20.38;;;;;;;16.79;100.00;101659.41;5017086;28;20532;-72
2021/10/19 10:15:34;;;;;;;32.97;18.48;;;;;;;16.78;100.00;101651.41;5016502;28;20030;-72
2021/10/19 10:18:05;;;;;;;28.20;17.85;;;;;;;16.83;100.00;101660.28;5017150;28;20076;-71
2021/10/19 10:20:43;;;;;;;27.88;18.15;;;;;;;16.86;100.00;101666.53;5016878;28;20501;-71
2021/10/19 10:23:20;;;;;;;33.65;20.35;;;;;;;16.88;100.00;101671.84;5016820;28;20036;-72
2021/10/19 10:25:48;;;;;;;29.40;18.80;;;;;;;16.89;100.00;101659.41;5016484;28;20062;-72
2021/10/19 10:28:32;;;;;;;30.63;19.75;;;;;;;16.88;100.00;101668.31;5016715;28;20055;-73
2021/10/19 10:31:05;;;;;;;31.33;22.38;;;;;;;16.88;100.00;101660.31;5016690;28;20030;-73
2021/10/19 10:33:40;;;;;;;36.50;23.42;;;;;;;16.86;100.00;101661.19;5016658;28;20022;-72
2021/10/19 10:36:11;;;;;;;33.83;23.67;;;;;;;16.87;100.00;101667.41;5015415;28;20041;-73
2021/10/19 10:38:38;;;;;;;32.30;23.98;;;;;;;16.90;100.00;101663.91;5016706;28;20029;-72
2021/10/19 10:41:12;;;;;;;35.88;24.00;;;;;;;16.92;100.00;101665.69;5016567;28;20029;-73
2021/10/19 10:43:38;;;;;;;32.75;23.23;;;;;;;16.96;100.00;101661.28;5016642;28;20045;-73
2021/10/19 10:46:08;;;;;;;31.65;20.27;;;;;;;16.96;100.00;101650.63;5015100;28;20117;-73
2021/10/19 10:48:35;;;;;;;33.47;20.77;;;;;;;17.01;100.00;101654.16;5016376;28;20076;-73
2021/10/19 10:51:02;;;;;;;28.52;20.15;;;;;;;16.98;100.00;101660.41;5016229;28;20115;-72
2021/10/19 10:53:38;;;;;;;30.98;19.67;;;;;;;17.00;100.00;101650.63;5025964;28;20067;-72
2021/10/19 10:56:06;;;;;;;30.85;18.13;;;;;;;17.03;100.00;101652.41;5035933;28;20550;-73
2021/10/19 10:58:36;;;;;;;29.05;18.52;;;;;;;17.06;100.00;101646.22;5036066;28;20429;-74
2021/10/19 11:01:22;;;;;;;29.30;16.85;;;;;;;17.03;100.00;101653.28;5034960;28;20045;-73